Time;durP1;ratioP1;P1;durP2;ratioP2;P2;SDS_P1;SDS_P2;PMS_P1;PMS_P2;Temp;Humidity;BMP_temperature;BMP_pressure;BME280_temperature;BME280_humidity;BME280_pressure;Samples;Min_cycle;Max_cycle;Signal;HPM_P1;HPM_P2
2022/01/18 00:00:43;;;;;;;152.85;73.47;;;;;;;-2.20;100.00;99037.94;5050384;28;20083;-71
2022/01/18 00:03:08;;;;;;;144.13;71.28;;;;;;;-2.05;100.00;99054.81;5050257;28;20051;-72
2022/01/18 00:05:34;;;;;;;131.63;67.25;;;;;;;-2.16;100.00;99069.50;5049945;28;20108;-72
2022/01/18 00:08:00;;;;;;;128.85;66.70;;;;;;;-2.22;100.00;99062.22;5053511;28;20035;-72
2022/01/18 00:10:29;;;;;;;124.65;67.75;;;;;;;-2.16;100.00;99068.69;5053815;28;20024;-72
2022/01/18 00:13:08;;;;;;;130.52;64.18;;;;;;;-2.21;100.00;99066.56;5053662;28;20021;-72
2022/01/18 00:15:56;;;;;;;135.02;64.90;;;;;;;-2.10;100.00;99069.81;5057726;28;20207;-72
2022/01/18 00:18:22;;;;;;;135.50;63.05;;;;;;;-2.15;100.00;99056.94;5054001;28;20037;-72
2022/01/18 00:23:19;;;;;;;120.90;61.38;;;;;;;-2.12;100.00;99080.69;5054136;28;20032;-73
2022/01/18 00:25:49;;;;;;;115.63;58.85;;;;;;;-2.16;100.00;99096.31;5052413;28;20045;-72
2022/01/18 00:28:15;;;;;;;130.50;61.85;;;;;;;-2.22;100.00;99096.22;5053452;28;20090;-72
2022/01/18 00:33:20;;;;;;;133.27;64.45;;;;;;;-2.19;100.00;99101.19;5033509;28;20041;-72
2022/01/18 00:35:47;;;;;;;115.25;61.03;;;;;;;-2.19;100.00;99096.69;5033473;28;20120;-72
2022/01/18 00:38:30;;;;;;;124.68;60.55;;;;;;;-2.22;100.00;99096.22;5033105;28;20025;-71
2022/01/18 00:40:57;;;;;;;132.13;65.25;;;;;;;-2.23;100.00;99095.41;5033077;28;20041;-72
2022/01/18 00:43:22;;;;;;;129.15;61.40;;;;;;;-2.34;100.00;99097.69;5041714;28;20025;-72
2022/01/18 00:45:48;;;;;;;129.05;64.13;;;;;;;-2.41;100.00;99107.50;5051424;28;20083;-71
2022/01/18 00:48:13;;;;;;;133.10;64.85;;;;;;;-2.40;100.00;99118.03;5052892;28;20049;-72
2022/01/18 00:50:39;;;;;;;124.97;60.60;;;;;;;-2.33;100.00;99118.97;5052812;28;20090;-72
2022/01/18 00:53:06;;;;;;;128.57;61.83;;;;;;;-2.36;100.00;99105.09;5052817;28;20039;-73
2022/01/18 00:55:36;;;;;;;123.53;63.70;;;;;;;-2.39;100.00;99106.31;5052735;28;20060;-72
2022/01/18 00:58:01;;;;;;;129.65;62.05;;;;;;;-2.47;100.00;99111.75;5052897;28;20025;-72
2022/01/18 01:00:27;;;;;;;126.40;62.78;;;;;;;-2.40;100.00;99114.50;5053311;28;20413;-72
2022/01/18 01:02:52;;;;;;;121.90;61.35;;;;;;;-2.44;100.00;99119.41;5053006;28;20025;-71
2022/01/18 01:05:17;;;;;;;129.55;63.60;;;;;;;-2.51;100.00;99104.28;5052722;28;20029;-71
2022/01/18 01:07:43;;;;;;;125.50;61.80;;;;;;;-2.57;100.00;99113.88;5052659;28;20024;-71
2022/01/18 01:10:08;;;;;;;128.35;62.17;;;;;;;-2.51;100.00;99112.31;5052664;28;20037;-71
2022/01/18 01:12:34;;;;;;;117.53;60.35;;;;;;;-2.57;100.00;99124.59;5052729;28;20079;-71
2022/01/18 01:15:08;;;;;;;136.32;63.55;;;;;;;-2.49;100.00;99148.59;5052514;28;20488;-71
2022/01/18 01:17:48;;;;;;;124.57;63.38;;;;;;;-2.60;100.00;99138.31;5052151;28;20092;-72
2022/01/18 01:46:40;;;;;;;115.32;57.53;;;;;;;-2.68;100.00;99148.28;5051200;28;20025;-72
2022/01/18 01:49:09;;;;;;;116.20;58.55;;;;;;;-2.69;100.00;99147.44;5051690;28;20028;-72
2022/01/18 01:51:35;;;;;;;122.18;58.38;;;;;;;-2.62;100.00;99164.44;5051497;28;20465;-71
2022/01/18 01:54:06;;;;;;;117.78;58.22;;;;;;;-2.66;100.00;99152.41;5051781;28;20025;-72
2022/01/18 01:56:33;;;;;;;112.22;56.15;;;;;;;-2.79;100.00;99155.72;5051636;28;20049;-72
2022/01/18 01:58:59;;;;;;;115.30;56.50;;;;;;;-2.79;100.00;99147.69;5052075;28;20041;-71
2022/01/18 02:01:24;;;;;;;115.57;57.88;;;;;;;-2.76;100.00;99162.56;5051823;28;20033;-72
2022/01/18 02:03:50;;;;;;;111.97;56.05;;;;;;;-2.83;100.00;99153.59;5051685;28;20033;-71
2022/01/18 02:06:16;;;;;;;113.32;55.50;;;;;;;-2.73;100.00;99156.88;5051458;28;20108;-71
2022/01/18 02:08:43;;;;;;;109.93;52.80;;;;;;;-2.70;100.00;99172.56;5051560;28;20025;-71
2022/01/18 02:11:09;;;;;;;112.75;56.58;;;;;;;-2.77;100.00;99174.28;5051476;28;20400;-71
2022/01/18 02:13:35;;;;;;;111.35;57.30;;;;;;;-2.94;100.00;99167.38;5051641;28;20815;-72
2022/01/18 02:23:56;;;;;;;121.20;58.45;;;;;;;-2.94;100.00;99162.03;5053513;28;20120;-71
2022/01/18 02:26:22;;;;;;;117.32;55.15;;;;;;;-2.93;100.00;99166.38;5052251;28;20116;-72
2022/01/18 02:28:47;;;;;;;117.13;57.33;;;;;;;-3.04;100.00;99169.50;5051513;28;20044;-72
2022/01/18 02:31:13;;;;;;;120.72;57.55;;;;;;;-3.07;100.00;99159.16;5051059;28;20029;-72
2022/01/18 02:33:39;;;;;;;116.82;59.08;;;;;;;-3.07;100.00;99164.50;5051304;28;20107;-72
2022/01/18 02:36:09;;;;;;;113.85;58.03;;;;;;;-3.11;100.00;99161.34;5051313;28;20025;-71
2022/01/18 02:38:35;;;;;;;119.40;58.08;;;;;;;-3.26;100.00;99161.28;5050802;28;20056;-72
2022/01/18 02:41:01;;;;;;;135.18;64.07;;;;;;;-3.21;100.00;99167.94;5049935;28;20619;-72
2022/01/18 02:43:50;;;;;;;123.00;59.20;;;;;;;-3.26;100.00;99166.63;5050685;28;20413;-72
2022/01/18 02:46:15;;;;;;;107.10;54.38;;;;;;;-3.21;100.00;99167.94;5051213;28;20021;-72
2022/01/18 02:48:40;;;;;;;115.72;55.00;;;;;;;-3.27;100.00;99173.00;5050882;28;20040;-70
2022/01/18 02:51:06;;;;;;;126.43;62.10;;;;;;;-3.34;100.00;99173.88;5050841;28;20036;-72
2022/01/18 02:53:31;;;;;;;130.05;63.88;;;;;;;-3.34;100.00;99177.38;5050891;28;20025;-71
2022/01/18 02:55:58;;;;;;;133.02;66.07;;;;;;;-3.39;100.00;99189.63;5050473;28;20045;-72
2022/01/18 02:58:31;;;;;;;137.30;66.75;;;;;;;-3.22;100.00;99209.91;5050470;28;20078;-72
2022/01/18 03:03:32;;;;;;;142.38;66.43;;;;;;;-3.12;100.00;99231.06;5050807;28;20025;-71
2022/01/18 03:05:58;;;;;;;142.75;66.05;;;;;;;-3.07;100.00;99223.38;5050534;28;20398;-72
2022/01/18 03:08:24;;;;;;;134.00;65.88;;;;;;;-3.08;100.00;99206.47;5051068;28;20032;-73
2022/01/18 03:10:50;;;;;;;126.68;60.78;;;;;;;-2.97;100.00;99202.53;5050527;28;20033;-72
2022/01/18 03:13:18;;;;;;;122.97;60.00;;;;;;;-2.95;100.00;99219.25;5050565;28;20029;-72
2022/01/18 03:15:43;;;;;;;123.82;60.03;;;;;;;-2.99;100.00;99220.63;5050854;28;20025;-72
2022/01/18 03:18:09;;;;;;;124.32;61.10;;;;;;;-2.93;100.00;99235.97;5050203;28;20040;-72
2022/01/18 03:20:35;;;;;;;120.90;57.85;;;;;;;-3.00;100.00;99235.00;5050413;28;20112;-72
2022/01/18 03:23:01;;;;;;;109.45;56.35;;;;;;;-2.89;100.00;99248.00;5050743;28;20025;-72
2022/01/18 03:26:15;;;;;;;114.97;55.88;;;;;;;-2.96;100.00;99249.69;5050498;28;20414;-72
2022/01/18 03:28:15;;;;;;;103.07;52.80;;;;;;;-2.93;100.00;99262.72;5047209;28;20048;-72
2022/01/18 03:30:43;;;;;;;103.72;52.78;;;;;;;-2.97;100.00;99261.41;5050745;28;20025;-72
2022/01/18 03:33:11;;;;;;;106.53;50.28;;;;;;;-3.08;100.00;99253.78;5050703;28;20032;-72
2022/01/18 03:35:37;;;;;;;102.57;50.90;;;;;;;-3.09;100.00;99260.16;5050576;28;20036;-71
2022/01/18 03:38:03;;;;;;;106.53;52.67;;;;;;;-3.03;100.00;99260.28;5050281;28;20037;-75
2022/01/18 03:40:29;;;;;;;102.20;51.38;;;;;;;-3.03;100.00;99278.16;5051254;28;20032;-72
2022/01/18 03:42:55;;;;;;;104.78;51.00;;;;;;;-3.04;100.00;99272.00;5053996;28;20367;-72
2022/01/18 03:45:39;;;;;;;99.40;47.70;;;;;;;-3.13;100.00;99267.69;5054842;28;20057;-72
2022/01/18 03:48:07;;;;;;;101.35;50.30;;;;;;;-3.21;100.00;99269.59;5054463;28;20033;-71
2022/01/18 03:50:32;;;;;;;97.30;48.80;;;;;;;-3.20;100.00;99284.63;5054204;28;20098;-71
2022/01/18 03:52:58;;;;;;;101.97;51.97;;;;;;;-3.19;100.00;99278.25;5054123;28;20458;-72
2022/01/18 03:55:24;;;;;;;109.93;53.67;;;;;;;-3.25;100.00;99275.28;5053905;28;20052;-71
2022/01/18 03:57:49;;;;;;;120.93;58.15;;;;;;;-3.33;100.00;99282.53;5052681;28;20045;-72
2022/01/18 04:00:18;;;;;;;113.88;57.88;;;;;;;-3.20;100.00;99287.31;5053326;28;20497;-72
2022/01/18 04:02:45;;;;;;;106.63;53.45;;;;;;;-3.22;100.00;99287.47;5054054;28;20432;-71
2022/01/18 04:05:11;;;;;;;115.20;56.00;;;;;;;-3.39;100.00;99283.22;5053516;28;20021;-73
2022/01/18 04:07:37;;;;;;;121.00;56.70;;;;;;;-3.40;100.00;99290.41;5047909;28;20032;-72
2022/01/18 04:10:05;;;;;;;112.65;54.50;;;;;;;-3.26;100.00;99292.31;5044180;28;20030;-71
2022/01/18 04:12:31;;;;;;;117.45;57.22;;;;;;;-3.25;100.00;99301.19;5032268;28;20454;-72
2022/01/18 04:14:58;;;;;;;107.78;53.58;;;;;;;-3.28;100.00;99309.56;5049573;28;20120;-72
2022/01/18 04:30:39;;;;;;;110.68;52.05;;;;;;;-3.38;100.00;99314.28;5035622;28;20010;-73
2022/01/18 04:33:05;;;;;;;114.65;54.90;;;;;;;-3.44;100.00;99326.50;5035910;28;20039;-72
2022/01/18 04:35:30;;;;;;;108.45;53.08;;;;;;;-3.41;100.00;99323.47;5033389;28;20390;-72
2022/01/18 04:37:56;;;;;;;114.28;54.85;;;;;;;-3.39;100.00;99326.84;5033267;28;20029;-71
2022/01/18 04:40:27;;;;;;;112.10;53.35;;;;;;;-3.34;100.00;99334.31;5033397;28;20033;-72
2022/01/18 04:50:48;;;;;;;112.88;51.72;;;;;;;-3.54;100.00;99344.56;5033229;28;19920;-72
2022/01/18 04:53:14;;;;;;;101.72;49.83;;;;;;;-3.53;100.00;99342.75;5031762;28;20036;-71
2022/01/18 04:55:39;;;;;;;107.75;52.95;;;;;;;-3.49;100.00;99350.25;5032756;28;20471;-72
2022/01/18 04:58:05;;;;;;;109.18;53.20;;;;;;;-3.53;100.00;99348.94;5032995;28;20084;-72
2022/01/18 05:00:30;;;;;;;102.90;52.95;;;;;;;-3.53;100.00;99348.94;5032981;28;20084;-72
2022/01/18 05:02:55;;;;;;;107.10;50.40;;;;;;;-3.41;100.00;99360.09;5042875;28;20017;-72
2022/01/18 05:05:25;;;;;;;110.32;53.63;;;;;;;-3.39;100.00;99364.28;5052426;28;20115;-74
2022/01/18 05:07:52;;;;;;;108.97;52.53;;;;;;;-3.37;100.00;99356.91;5052535;28;20120;-74
2022/01/18 05:10:20;;;;;;;97.35;49.10;;;;;;;-3.37;100.00;99367.59;5052340;28;20028;-73
2022/01/18 05:12:49;;;;;;;108.90;50.42;;;;;;;-3.47;100.00;99352.75;5052397;28;20485;-72
2022/01/18 05:23:06;;;;;;;103.25;49.88;;;;;;;-3.51;100.00;99384.34;5052308;28;20028;-74
2022/01/18 05:25:32;;;;;;;104.10;50.05;;;;;;;-3.48;100.00;99392.03;5052142;28;20028;-73
2022/01/18 05:27:59;;;;;;;104.30;50.00;;;;;;;-3.56;100.00;99392.03;5052181;28;20504;-72
2022/01/18 05:30:26;;;;;;;121.53;55.38;;;;;;;-3.55;100.00;99399.06;5052195;28;20024;-73
2022/01/18 05:32:52;;;;;;;104.90;50.90;;;;;;;-3.50;100.00;99393.19;5052050;28;20068;-71
2022/01/18 05:35:19;;;;;;;98.18;48.80;;;;;;;-3.56;100.00;99405.41;5052133;28;20044;-72
2022/01/18 05:37:45;;;;;;;109.45;50.65;;;;;;;-3.59;100.00;99419.13;5051715;28;20057;-71
2022/01/18 05:40:10;;;;;;;104.28;49.65;;;;;;;-3.46;100.00;99423.94;5052066;28;20063;-73
2022/01/18 05:42:36;;;;;;;100.95;49.17;;;;;;;-3.34;100.00;99427.94;5051845;28;20033;-71
2022/01/18 05:45:03;;;;;;;91.97;46.03;;;;;;;-3.47;100.00;99433.81;5051798;28;20029;-74
2022/01/18 05:47:28;;;;;;;89.28;44.15;;;;;;;-3.56;100.00;99434.81;5052379;28;20032;-72
2022/01/18 05:49:54;;;;;;;89.75;44.28;;;;;;;-3.47;100.00;99430.28;5051747;28;20009;-71
2022/01/18 05:52:19;;;;;;;85.03;42.83;;;;;;;-3.42;100.00;99438.66;5052351;28;20044;-71
2022/01/18 05:54:44;;;;;;;81.90;43.08;;;;;;;-3.37;100.00;99441.63;5052138;28;20139;-73
2022/01/18 05:57:10;;;;;;;73.60;39.15;;;;;;;-3.29;100.00;99455.81;5051807;28;20113;-71
2022/01/18 05:59:38;;;;;;;91.30;39.83;;;;;;;-3.16;100.00;99455.28;5051469;28;20021;-72
2022/01/18 06:02:16;;;;;;;73.03;38.20;;;;;;;-3.03;100.00;99465.47;5047980;28;20021;-71
2022/01/18 06:07:26;;;;;;;75.20;36.47;;;;;;;-2.82;100.00;99469.25;5031712;28;20040;-72
2022/01/18 06:09:55;;;;;;;70.15;35.28;;;;;;;-2.70;100.00;99472.41;5031591;28;20029;-71
2022/01/18 06:12:22;;;;;;;77.85;37.25;;;;;;;-2.66;100.00;99479.06;5031386;28;20569;-72
2022/01/18 06:14:48;;;;;;;69.70;35.25;;;;;;;-2.58;100.00;99487.06;5031379;28;20029;-73
2022/01/18 06:17:13;;;;;;;63.78;35.03;;;;;;;-2.57;100.00;99490.59;5031503;28;20052;-75
2022/01/18 06:19:39;;;;;;;65.13;34.13;;;;;;;-2.56;100.00;99490.41;5031284;28;20025;-72
2022/01/18 06:22:04;;;;;;;67.97;34.35;;;;;;;-2.52;100.00;99481.00;5031253;28;20402;-73
2022/01/18 06:24:30;;;;;;;64.30;33.35;;;;;;;-2.58;100.00;99487.06;5030957;28;20165;-71
2022/01/18 06:26:55;;;;;;;74.68;34.65;;;;;;;-2.64;100.00;99493.13;5065773;28;20033;-72
2022/01/18 06:29:21;;;;;;;63.75;33.90;;;;;;;-2.65;100.00;99498.63;5030374;28;20033;-71
2022/01/18 06:31:47;;;;;;;69.80;34.55;;;;;;;-2.65;100.00;99491.44;5031334;28;20029;-72
2022/01/18 06:34:14;;;;;;;63.58;33.45;;;;;;;-2.73;100.00;99480.78;5031387;28;20037;-72
2022/01/18 06:36:41;;;;;;;68.65;34.47;;;;;;;-2.75;100.00;99488.97;5031345;28;20024;-71
2022/01/18 06:39:06;;;;;;;64.03;33.40;;;;;;;-2.71;100.00;99492.13;5031995;28;20398;-73
2022/01/18 06:41:32;;;;;;;61.22;32.65;;;;;;;-2.66;100.00;99489.75;5034093;28;20025;-72
2022/01/18 06:43:57;;;;;;;66.20;33.75;;;;;;;-2.65;100.00;99501.31;5030932;28;20064;-71
2022/01/18 06:46:23;;;;;;;72.50;34.38;;;;;;;-2.66;100.00;99500.47;5031608;28;20033;-72
2022/01/18 06:48:48;;;;;;;66.20;33.20;;;;;;;-2.63;100.00;99494.78;5031059;28;20076;-72
2022/01/18 06:51:14;;;;;;;65.05;32.28;;;;;;;-2.49;100.00;99507.44;5031433;28;20057;-73
2022/01/18 06:53:45;;;;;;;72.85;34.83;;;;;;;-2.57;100.00;99504.81;5030856;28;20029;-72
2022/01/18 06:56:12;;;;;;;68.53;34.40;;;;;;;-2.29;100.00;99511.34;5030524;28;20144;-72
2022/01/18 06:58:38;;;;;;;67.75;33.67;;;;;;;-2.01;100.00;99513.56;5030649;28;20418;-71
2022/01/18 07:01:03;;;;;;;62.80;31.70;;;;;;;-1.85;100.00;99508.13;5030678;28;20109;-72
2022/01/18 07:03:29;;;;;;;62.30;32.95;;;;;;;-1.23;100.00;99523.03;5030659;28;20116;-72
2022/01/18 07:05:54;;;;;;;62.25;30.50;;;;;;;-0.21;100.00;99522.25;5030648;28;20363;-72
2022/01/18 07:08:20;;;;;;;63.20;31.45;;;;;;;0.86;100.00;99526.69;5030712;28;20033;-72
2022/01/18 07:10:45;;;;;;;56.10;27.55;;;;;;;1.55;100.00;99526.75;5030490;28;20022;-72
2022/01/18 07:13:13;;;;;;;59.80;30.27;;;;;;;2.09;100.00;99532.22;5030638;28;20488;-73
2022/01/18 07:15:39;;;;;;;55.72;29.05;;;;;;;2.44;97.81;99532.94;5030278;28;20026;-71
2022/01/18 07:18:13;;;;;;;72.70;33.63;;;;;;;2.77;95.02;99536.53;5030498;28;20080;-73
2022/01/18 07:20:41;;;;;;;65.83;33.30;;;;;;;3.78;89.35;99532.50;5030370;28;20371;-72
2022/01/18 07:23:08;;;;;;;62.35;33.72;;;;;;;3.54;87.70;99527.78;5041893;28;20302;-71
2022/01/18 07:25:34;;;;;;;53.65;27.38;;;;;;;3.28;92.24;99533.22;5044667;28;20104;-71
2022/01/18 07:27:59;;;;;;;55.60;29.73;;;;;;;4.58;83.77;99547.31;5048665;28;20036;-71
2022/01/18 07:30:25;;;;;;;51.08;29.75;;;;;;;5.78;77.60;99541.53;5048388;28;20029;-72
2022/01/18 07:32:51;;;;;;;57.38;30.73;;;;;;;6.21;74.32;99547.75;5048357;28;20032;-71
2022/01/18 07:35:17;;;;;;;59.70;31.90;;;;;;;6.15;72.88;99545.94;5048955;28;20025;-72
2022/01/18 07:37:43;;;;;;;55.45;30.83;;;;;;;6.36;74.07;99547.34;5048719;28;20045;-72
2022/01/18 07:40:09;;;;;;;66.15;36.05;;;;;;;6.46;73.48;99551.19;5048909;28;20023;-71
2022/01/18 07:42:34;;;;;;;58.00;31.45;;;;;;;7.25;70.03;99560.91;5046935;28;20029;-71
2022/01/18 07:45:00;;;;;;;54.38;31.17;;;;;;;7.87;67.30;99561.25;5050206;28;20031;-73
2022/01/18 07:47:25;;;;;;;54.72;33.05;;;;;;;7.85;67.20;99566.97;5048884;28;20032;-72
2022/01/18 07:49:51;;;;;;;69.63;43.78;;;;;;;7.23;68.00;99576.63;5049832;28;20071;-73
2022/01/18 07:52:16;;;;;;;58.13;34.92;;;;;;;7.35;69.76;99579.38;5050195;28;20096;-73
2022/01/18 07:54:42;;;;;;;67.10;41.90;;;;;;;7.90;68.00;99579.84;5051334;28;20068;-72
2022/01/18 07:57:11;;;;;;;73.05;41.28;;;;;;;8.64;64.60;99587.22;5050498;28;20088;-74
2022/01/18 07:59:36;;;;;;;58.22;35.38;;;;;;;9.30;61.68;99583.81;5050491;28;20475;-73
2022/01/18 08:02:02;;;;;;;77.10;44.50;;;;;;;9.16;61.38;99577.00;5048660;28;20020;-74
2022/01/18 08:04:27;;;;;;;132.20;72.55;;;;;;;9.32;60.77;99578.94;5048115;28;20076;-75
2022/01/18 08:06:53;;;;;;;121.88;66.47;;;;;;;9.35;60.47;99592.09;5044634;28;20020;-72
2022/01/18 08:09:19;;;;;;;67.00;38.05;;;;;;;9.37;59.91;99591.81;5048159;28;20516;-73
2022/01/18 08:11:51;;;;;;;103.00;55.63;;;;;;;8.86;61.03;99587.38;5048730;28;20031;-74
2022/01/18 08:14:17;;;;;;;74.97;42.55;;;;;;;8.55;62.61;99581.31;5045468;28;20112;-73
2022/01/18 08:16:48;;;;;;;44.72;30.27;;;;;;;9.03;62.01;99589.06;5046998;28;20029;-73
2022/01/18 08:19:14;;;;;;;40.42;25.20;;;;;;;9.78;59.23;99593.31;5049865;28;20132;-74
2022/01/18 08:21:40;;;;;;;37.22;23.75;;;;;;;9.86;58.30;99599.22;5049370;28;20036;-75
2022/01/18 08:24:05;;;;;;;43.08;25.55;;;;;;;10.37;57.46;99605.44;5044873;28;20029;-74
2022/01/18 08:26:30;;;;;;;42.47;24.88;;;;;;;10.00;58.51;99599.69;5049586;28;20029;-74
2022/01/18 08:28:56;;;;;;;46.40;25.60;;;;;;;10.07;58.24;99605.81;5053976;28;20021;-74
2022/01/18 08:31:21;;;;;;;45.45;27.08;;;;;;;10.60;56.66;99600.53;5053460;28;20060;-73
2022/01/18 08:33:47;;;;;;;48.72;29.77;;;;;;;10.93;56.42;99605.03;5038174;28;20112;-73
2022/01/18 08:36:12;;;;;;;48.40;31.65;;;;;;;11.20;55.16;99605.06;5048832;28;20145;-75
2022/01/18 08:38:39;;;;;;;45.08;27.63;;;;;;;10.84;57.19;99611.25;5040810;28;20116;-74
2022/01/18 08:41:05;;;;;;;49.05;27.45;;;;;;;10.20;57.54;99621.88;5042132;28;20025;-74
2022/01/18 08:43:31;;;;;;;50.08;26.55;;;;;;;10.53;56.86;99620.97;5039299;28;20030;-75
2022/01/18 08:46:01;;;;;;;39.38;25.45;;;;;;;11.57;54.84;99622.38;5046231;28;20031;-74
2022/01/18 08:48:26;;;;;;;43.80;25.92;;;;;;;11.43;54.70;99632.13;5036757;28;20034;-75
2022/01/18 08:50:52;;;;;;;42.45;25.33;;;;;;;12.17;53.19;99643.19;5037126;28;20006;-74
2022/01/18 08:53:18;;;;;;;39.45;24.05;;;;;;;11.92;53.18;99637.50;5043613;28;20029;-74
2022/01/18 08:55:44;;;;;;;36.65;24.17;;;;;;;13.08;51.17;99643.63;5040671;28;20057;-74
2022/01/18 08:58:09;;;;;;;42.33;25.83;;;;;;;13.01;50.41;99643.88;5048076;28;20105;-71
2022/01/18 09:00:35;;;;;;;40.88;25.75;;;;;;;13.01;50.79;99643.06;5035152;28;20541;-72
2022/01/18 09:03:01;;;;;;;43.42;26.02;;;;;;;13.26;50.74;99646.75;5036401;28;20010;-72
2022/01/18 09:05:27;;;;;;;39.70;25.83;;;;;;;13.57;49.85;99653.13;5043737;28;20028;-72
2022/01/18 09:07:52;;;;;;;37.47;23.23;;;;;;;14.15;48.00;99661.94;5032872;28;20029;-71
2022/01/18 09:10:19;;;;;;;37.00;24.15;;;;;;;13.46;49.22;99662.47;5032563;28;20494;-71
2022/01/18 09:12:44;;;;;;;36.55;24.25;;;;;;;12.81;51.00;99661.09;5032693;28;20029;-72
2022/01/18 09:15:12;;;;;;;33.83;23.38;;;;;;;12.79;50.83;99668.78;5032453;28;20033;-72
2022/01/18 09:17:38;;;;;;;35.35;23.40;;;;;;;12.26;52.86;99675.34;5032558;28;20035;-72
2022/01/18 09:20:06;;;;;;;39.90;23.13;;;;;;;12.72;51.64;99670.94;5032344;28;20033;-71
2022/01/18 09:22:35;;;;;;;35.63;23.05;;;;;;;12.11;52.80;99680.72;5032130;28;20022;-71
2022/01/18 09:25:02;;;;;;;36.53;23.30;;;;;;;11.93;54.18;99683.88;5032257;28;20052;-72
2022/01/18 09:27:28;;;;;;;32.08;19.55;;;;;;;12.45;52.54;99681.22;5030977;28;20028;-72
2022/01/18 09:29:53;;;;;;;32.28;20.05;;;;;;;12.67;52.44;99683.84;5038001;28;20021;-72
2022/01/18 09:32:19;;;;;;;29.85;19.90;;;;;;;13.51;50.24;99681.72;5052408;28;20063;-72
2022/01/18 09:34:44;;;;;;;31.25;19.63;;;;;;;13.69;49.51;99681.19;5052648;28;20051;-71
2022/01/18 09:37:10;;;;;;;29.85;20.02;;;;;;;13.60;49.68;99685.56;5053415;28;20067;-71
2022/01/18 09:39:35;;;;;;;32.67;19.73;;;;;;;13.66;49.98;99689.97;5051585;28;20036;-72
2022/01/18 09:42:04;;;;;;;30.25;20.30;;;;;;;14.22;48.07;99682.56;5052580;28;20029;-72
2022/01/18 09:44:30;;;;;;;24.48;16.67;;;;;;;13.72;49.03;99680.63;5052059;28;20082;-73
2022/01/18 09:46:56;;;;;;;22.80;14.73;;;;;;;14.23;48.09;99688.91;5052090;28;20029;-73
2022/01/18 09:49:24;;;;;;;19.92;13.57;;;;;;;13.94;48.44;99683.97;5052366;28;20036;-72
2022/01/18 09:51:50;;;;;;;20.35;13.75;;;;;;;14.14;47.35;99690.56;5052281;28;20029;-72
2022/01/18 09:54:15;;;;;;;22.40;13.95;;;;;;;14.10;47.59;99692.22;5052150;28;20029;-72
2022/01/18 09:56:40;;;;;;;23.40;13.80;;;;;;;13.81;48.40;99680.94;5052253;28;20065;-73
2022/01/18 09:59:07;;;;;;;19.05;12.40;;;;;;;14.39;47.09;99685.06;5051898;28;20111;-73
2022/01/18 10:01:32;;;;;;;22.48;14.23;;;;;;;13.84;49.03;99666.63;5051691;28;20127;-73
2022/01/18 10:04:18;;;;;;;19.17;13.23;;;;;;;14.15;47.96;99676.53;5052034;28;20154;-72
2022/01/18 10:06:45;;;;;;;22.33;12.98;;;;;;;14.44;46.48;99674.03;5050691;28;20120;-72
2022/01/18 10:09:13;;;;;;;19.33;12.38;;;;;;;14.06;47.62;99671.88;5051808;28;20053;-72
2022/01/18 10:12:01;;;;;;;17.52;12.30;;;;;;;13.64;47.83;99664.69;5052077;28;20033;-73
2022/01/18 10:14:27;;;;;;;17.52;11.52;;;;;;;14.08;47.60;99664.97;5052840;28;20033;-72
2022/01/18 10:16:52;;;;;;;15.43;10.18;;;;;;;14.23;46.47;99655.88;5054146;28;20029;-72
2022/01/18 10:19:36;;;;;;;15.68;10.95;;;;;;;14.14;46.20;99657.53;5056496;28;20040;-72
2022/01/18 10:22:15;;;;;;;20.90;11.27;;;;;;;13.87;47.25;99653.16;5051551;28;20394;-73
2022/01/18 10:24:41;;;;;;;14.13;7.70;;;;;;;13.82;46.31;99644.91;5051597;28;20037;-72
2022/01/18 10:27:08;;;;;;;13.27;8.35;;;;;;;13.19;47.82;99640.69;5049323;28;20040;-72
2022/01/18 10:29:42;;;;;;;12.90;7.85;;;;;;;13.21;47.71;99635.75;5043753;28;20018;-72
2022/01/18 10:37:18;;;;;;;15.00;7.20;;;;;;;13.25;48.38;99622.31;5046666;28;20061;-73
2022/01/18 10:39:55;;;;;;;15.82;9.70;;;;;;;13.29;48.28;99624.22;5034718;28;20024;-73
2022/01/18 10:42:40;;;;;;;18.48;11.05;;;;;;;12.40;50.67;99618.09;5033310;28;20095;-72
2022/01/18 10:45:33;;;;;;;16.00;9.43;;;;;;;12.62;49.34;99629.75;5038072;28;20025;-74
2022/01/18 10:48:13;;;;;;;16.10;9.45;;;;;;;12.91;49.71;99627.38;5036024;28;20029;-73
2022/01/18 10:50:42;;;;;;;15.90;10.43;;;;;;;13.00;48.87;99630.44;5030207;28;20037;-73
2022/01/18 10:53:13;;;;;;;12.98;8.63;;;;;;;13.53;47.54;99634.72;5039337;28;20036;-73
2022/01/18 10:55:39;;;;;;;17.92;10.52;;;;;;;13.52;47.70;99628.38;5032888;28;20045;-73
2022/01/18 10:58:16;;;;;;;16.90;9.85;;;;;;;11.95;50.81;99631.50;5037877;28;20039;-72
2022/01/18 11:00:42;;;;;;;16.10;10.02;;;;;;;12.39;50.33;99630.16;5030812;28;20017;-73
2022/01/18 11:03:09;;;;;;;16.00;9.90;;;;;;;12.37;50.59;99637.84;5030821;28;20061;-73
2022/01/18 11:05:37;;;;;;;18.98;11.32;;;;;;;12.26;52.43;99625.97;5030880;28;20025;-73
2022/01/18 11:08:04;;;;;;;19.63;11.93;;;;;;;12.55;51.12;99631.06;5031238;28;20069;-76
2022/01/18 11:10:34;;;;;;;22.45;11.43;;;;;;;12.32;51.82;99624.91;5030162;28;20544;-72
2022/01/18 11:13:05;;;;;;;16.73;10.90;;;;;;;12.64;51.20;99626.72;5030239;28;20579;-72
2022/01/18 11:15:33;;;;;;;15.10;8.98;;;;;;;12.40;50.91;99626.34;5030269;28;20503;-73
2022/01/18 11:18:06;;;;;;;11.88;8.10;;;;;;;12.29;50.37;99625.44;5030978;28;20021;-72
2022/01/18 11:20:38;;;;;;;13.65;8.07;;;;;;;11.46;51.98;99620.66;5033663;28;20029;-73
2022/01/18 11:23:06;;;;;;;16.42;7.85;;;;;;;11.49;52.24;99622.88;5038228;28;20035;-73
2022/01/18 11:25:32;;;;;;;12.25;7.43;;;;;;;11.44;52.66;99616.50;5042170;28;20028;-74
2022/01/18 11:27:59;;;;;;;14.48;8.35;;;;;;;11.08;53.96;99613.44;5033749;28;20159;-73
2022/01/18 11:30:29;;;;;;;10.40;5.45;;;;;;;10.87;53.23;99613.47;5033161;28;20386;-73
2022/01/18 11:32:56;;;;;;;9.70;6.03;;;;;;;11.36;52.91;99616.97;5030668;28;20116;-73
2022/01/18 11:35:37;;;;;;;13.15;8.13;;;;;;;11.92;51.64;99621.88;5030202;28;20375;-73
2022/01/18 11:38:14;;;;;;;15.23;8.45;;;;;;;11.65;51.67;99618.34;5030379;28;20547;-73
2022/01/18 11:40:56;;;;;;;14.30;8.40;;;;;;;10.73;54.60;99594.69;5031264;28;20037;-73
2022/01/18 11:43:36;;;;;;;17.02;9.77;;;;;;;10.78;54.19;99596.63;5030018;28;20022;-73
2022/01/18 11:46:27;;;;;;;15.68;8.63;;;;;;;10.49;55.46;99596.03;5030115;28;20022;-72
2022/01/18 11:49:08;;;;;;;14.45;8.60;;;;;;;10.40;56.46;99594.81;5030363;28;20030;-73
2022/01/18 11:51:44;;;;;;;18.98;8.80;;;;;;;10.51;55.27;99584.81;5046266;28;20026;-72
2022/01/18 11:54:44;;;;;;;14.15;7.22;;;;;;;10.00;56.81;99602.41;5029916;28;20033;-72
2022/01/18 11:57:15;;;;;;;16.33;8.55;;;;;;;9.06;59.90;99598.66;5045777;28;20037;-72
2022/01/18 11:59:41;;;;;;;16.23;9.23;;;;;;;8.17;63.12;99599.28;5048739;28;20044;-72
2022/01/18 12:02:07;;;;;;;16.63;8.73;;;;;;;7.67;64.67;99586.16;5050411;28;20513;-72
2022/01/18 12:04:46;;;;;;;12.32;6.85;;;;;;;7.33;65.67;99593.19;5053517;28;20090;-75
2022/01/18 12:07:34;;;;;;;14.25;7.63;;;;;;;7.18;66.79;99595.53;5054153;28;20029;-72
2022/01/18 12:10:02;;;;;;;15.07;7.35;;;;;;;7.09;67.03;99591.50;5046296;28;20032;-73
2022/01/18 12:12:39;;;;;;;14.93;8.07;;;;;;;7.41;67.34;99583.88;5033829;28;20033;-74
2022/01/18 12:15:26;;;;;;;15.27;8.35;;;;;;;7.50;66.89;99593.34;5033380;28;20040;-75
2022/01/18 12:18:01;;;;;;;13.65;8.30;;;;;;;7.36;67.49;99579.13;5032359;28;20065;-74
2022/01/18 12:20:45;;;;;;;14.80;8.30;;;;;;;7.30;67.68;99582.78;5033576;28;20112;-74
2022/01/18 12:23:18;;;;;;;15.45;8.88;;;;;;;7.00;68.92;99582.00;5034418;28;20034;-75
2022/01/18 12:26:01;;;;;;;15.30;8.52;;;;;;;6.96;68.98;99587.06;5034223;28;20080;-74
2022/01/18 12:28:36;;;;;;;15.68;9.48;;;;;;;7.08;68.17;99578.13;5038316;28;20045;-75
2022/01/18 12:31:16;;;;;;;14.70;8.60;;;;;;;7.16;67.88;99588.69;5046588;28;20025;-75
2022/01/18 12:33:45;;;;;;;16.02;8.55;;;;;;;7.30;67.43;99593.66;5050451;28;20266;-73
2022/01/18 12:36:29;;;;;;;17.80;8.38;;;;;;;7.04;68.46;99583.22;5051529;28;20040;-74